Beaverdam, Ohio
Current Conditions -  °F | °C
As of 12:53 AM on Thursday 23 Oct 2014 (Local Time) from KAOH Reporting Station
Overcast Overcast  
Wind Chill: 44°   Ceiling: 2900
Heat Index: 44°   Visibility: 8mi
Dew Point: 40°   Wind: 0mph
Humidity: 85%   Direction: NA
Pressure: 30.27"   Gusts: NA
Location:  40.83°N, 83.98°W
Report Text: KAOH 230453Z AUTO 00000KT 8SM OVC029 07/04 A3027 RMK AO2 SLP255 T00670044 401000050
Loading
Personal Weather Stations






























Interactive Weather Map
Tropical Storm Tracking
New forecast layout! Learn more

10-Day Weather Forecast

Advertisements
Track Severe Weather on mobile